sensor_id;sensor_type;location;lat;lon;timestamp;pressure;altitude;pressure_sealevel;temperature;humidity
11314;BME280;5712;48.858;9.206;2022-09-03T00:00:00;97754.34;;;15.44;75.33
11314;BME280;5712;48.858;9.206;2022-09-03T00:02:37;97758.78;;;15.53;74.81
11314;BME280;5712;48.858;9.206;2022-09-03T00:05:07;97756.38;;;15.60;73.97
11314;BME280;5712;48.858;9.206;2022-09-03T00:07:42;97756.47;;;15.68;73.70
11314;BME280;5712;48.858;9.206;2022-09-03T00:10:17;97751.69;;;15.71;73.35
11314;BME280;5712;48.858;9.206;2022-09-03T00:12:46;97751.97;;;15.78;73.26
11314;BME280;5712;48.858;9.206;2022-09-03T00:15:18;97749.38;;;15.86;72.76
11314;BME280;5712;48.858;9.206;2022-09-03T00:17:51;97739.25;;;15.89;72.53
11314;BME280;5712;48.858;9.206;2022-09-03T00:20:25;97739.00;;;15.92;72.46
11314;BME280;5712;48.858;9.206;2022-09-03T00:22:56;97747.53;;;15.96;72.38
11314;BME280;5712;48.858;9.206;2022-09-03T00:25:27;97736.84;;;15.96;72.41
11314;BME280;5712;48.858;9.206;2022-09-03T00:27:56;97741.72;;;16.00;72.34
11314;BME280;5712;48.858;9.206;2022-09-03T00:30:24;97743.28;;;16.02;71.92
11314;BME280;5712;48.858;9.206;2022-09-03T00:32:56;97750.13;;;16.05;71.67
11314;BME280;5712;48.858;9.206;2022-09-03T00:35:27;97754.00;;;16.10;71.38
11314;BME280;5712;48.858;9.206;2022-09-03T00:37:56;97746.00;;;16.10;71.12
11314;BME280;5712;48.858;9.206;2022-09-03T00:40:35;97752.06;;;16.13;71.46
11314;BME280;5712;48.858;9.206;2022-09-03T00:43:13;97752.59;;;16.16;71.24
11314;BME280;5712;48.858;9.206;2022-09-03T00:45:48;97753.13;;;16.19;71.05
11314;BME280;5712;48.858;9.206;2022-09-03T00:48:23;97750.88;;;16.24;71.01
11314;BME280;5712;48.858;9.206;2022-09-03T00:51:04;97743.53;;;16.26;70.61
11314;BME280;5712;48.858;9.206;2022-09-03T00:53:41;97745.06;;;16.29;70.58
11314;BME280;5712;48.858;9.206;2022-09-03T00:56:16;97744.94;;;16.30;71.42
11314;BME280;5712;48.858;9.206;2022-09-03T00:58:58;97744.22;;;16.28;72.25
11314;BME280;5712;48.858;9.206;2022-09-03T01:01:40;97746.06;;;16.28;72.90
11314;BME280;5712;48.858;9.206;2022-09-03T01:04:27;97750.56;;;16.27;73.31
11314;BME280;5712;48.858;9.206;2022-09-03T01:07:00;97746.88;;;16.28;73.29
11314;BME280;5712;48.858;9.206;2022-09-03T01:09:39;97746.88;;;16.28;73.62
11314;BME280;5712;48.858;9.206;2022-09-03T01:12:12;97747.88;;;16.27;74.06
11314;BME280;5712;48.858;9.206;2022-09-03T01:14:50;97748.59;;;16.29;73.61
11314;BME280;5712;48.858;9.206;2022-09-03T01:17:29;97749.28;;;16.31;73.42
11314;BME280;5712;48.858;9.206;2022-09-03T01:20:13;97748.28;;;16.32;73.07
11314;BME280;5712;48.858;9.206;2022-09-03T01:23:20;97755.28;;;16.33;73.22
11314;BME280;5712;48.858;9.206;2022-09-03T01:25:53;97746.13;;;16.36;73.53
11314;BME280;5712;48.858;9.206;2022-09-03T01:28:41;97745.16;;;16.37;73.58
11314;BME280;5712;48.858;9.206;2022-09-03T01:31:17;97746.72;;;16.39;73.73
11314;BME280;5712;48.858;9.206;2022-09-03T01:33:58;97738.72;;;16.39;73.65
11314;BME280;5712;48.858;9.206;2022-09-03T01:36:33;97746.72;;;16.39;74.07
11314;BME280;5712;48.858;9.206;2022-09-03T01:39:05;97739.69;;;16.38;74.39
11314;BME280;5712;48.858;9.206;2022-09-03T01:41:45;97742.63;;;16.35;75.57
11314;BME280;5712;48.858;9.206;2022-09-03T01:44:38;97744.03;;;16.39;75.89
11314;BME280;5712;48.858;9.206;2022-09-03T01:47:18;97746.00;;;16.37;76.39
11314;BME280;5712;48.858;9.206;2022-09-03T01:49:51;97748.94;;;16.34;76.83
11314;BME280;5712;48.858;9.206;2022-09-03T01:52:32;97762.22;;;16.26;77.27
11314;BME280;5712;48.858;9.206;2022-09-03T01:55:09;97757.88;;;16.25;76.92
11314;BME280;5712;48.858;9.206;2022-09-03T01:57:46;97755.88;;;16.27;76.31
11314;BME280;5712;48.858;9.206;2022-09-03T02:00:17;97761.94;;;16.29;76.47
11314;BME280;5712;48.858;9.206;2022-09-03T02:02:46;97759.47;;;16.36;75.36
11314;BME280;5712;48.858;9.206;2022-09-03T02:05:15;97756.38;;;16.40;75.07
11314;BME280;5712;48.858;9.206;2022-09-03T02:07:44;97751.59;;;16.44;75.13
11314;BME280;5712;48.858;9.206;2022-09-03T02:10:13;97751.28;;;16.47;75.26
11314;BME280;5712;48.858;9.206;2022-09-03T02:12:44;97748.50;;;16.48;75.19
11314;BME280;5712;48.858;9.206;2022-09-03T02:15:13;97748.50;;;16.48;75.83
11314;BME280;5712;48.858;9.206;2022-09-03T02:17:44;97751.84;;;16.50;75.95
11314;BME280;5712;48.858;9.206;2022-09-03T02:20:16;97751.84;;;16.50;76.12
11314;BME280;5712;48.858;9.206;2022-09-03T02:22:46;97748.16;;;16.51;76.42
11314;BME280;5712;48.858;9.206;2022-09-03T02:25:13;97765.56;;;16.55;76.22
11314;BME280;5712;48.858;9.206;2022-09-03T02:27:40;97772.56;;;16.56;75.95
11314;BME280;5712;48.858;9.206;2022-09-03T02:30:08;97765.25;;;16.58;76.04
11314;BME280;5712;48.858;9.206;2022-09-03T02:32:36;97763.56;;;16.57;76.44
11314;BME280;5712;48.858;9.206;2022-09-03T02:35:04;97774.91;;;16.59;76.73
11314;BME280;5712;48.858;9.206;2022-09-03T02:37:31;97768.44;;;16.62;76.45
11314;BME280;5712;48.858;9.206;2022-09-03T02:39:59;97763.97;;;16.62;75.77
11314;BME280;5712;48.858;9.206;2022-09-03T02:42:26;97755.28;;;16.60;75.53
11314;BME280;5712;48.858;9.206;2022-09-03T02:44:56;97755.56;;;16.57;75.22
11314;BME280;5712;48.858;9.206;2022-09-03T02:47:30;97752.50;;;16.52;74.82
11314;BME280;5712;48.858;9.206;2022-09-03T02:49:58;97757.78;;;16.44;74.97
11314;BME280;5712;48.858;9.206;2022-09-03T02:52:26;97756.41;;;16.31;75.73
11314;BME280;5712;48.858;9.206;2022-09-03T02:54:53;97756.63;;;16.20;76.73
11314;BME280;5712;48.858;9.206;2022-09-03T02:57:19;97752.06;;;16.13;77.43
11314;BME280;5712;48.858;9.206;2022-09-03T02:59:46;97743.13;;;16.04;78.55
11314;BME280;5712;48.858;9.206;2022-09-03T03:02:13;97747.22;;;15.98;79.08
11314;BME280;5712;48.858;9.206;2022-09-03T03:04:40;97752.41;;;16.00;78.63
11314;BME280;5712;48.858;9.206;2022-09-03T03:07:06;97752.13;;;16.03;77.85
11314;BME280;5712;48.858;9.206;2022-09-03T03:09:34;97756.91;;;16.00;78.51
11314;BME280;5712;48.858;9.206;2022-09-03T03:12:02;97746.53;;;15.97;79.27
11314;BME280;5712;48.858;9.206;2022-09-03T03:14:29;97753.53;;;15.98;79.28
11314;BME280;5712;48.858;9.206;2022-09-03T03:16:55;97754.66;;;15.95;79.38
11314;BME280;5712;48.858;9.206;2022-09-03T03:19:22;97763.66;;;15.94;79.12
11314;BME280;5712;48.858;9.206;2022-09-03T03:21:49;97761.13;;;15.93;78.36
11314;BME280;5712;48.858;9.206;2022-09-03T03:24:15;97760.00;;;15.95;77.40
11314;BME280;5712;48.858;9.206;2022-09-03T03:26:43;97760.84;;;15.96;76.48
11314;BME280;5712;48.858;9.206;2022-09-03T03:29:14;97753.25;;;16.01;76.04
11314;BME280;5712;48.858;9.206;2022-09-03T03:31:42;97764.72;;;16.01;75.71
11314;BME280;5712;48.858;9.206;2022-09-03T03:34:08;97769.38;;;15.99;76.41
11314;BME280;5712;48.858;9.206;2022-09-03T03:36:35;97764.50;;;15.95;76.99
11314;BME280;5712;48.858;9.206;2022-09-03T03:39:02;97761.13;;;15.93;76.73
11314;BME280;5712;48.858;9.206;2022-09-03T03:41:30;97763.78;;;15.93;76.88
11314;BME280;5712;48.858;9.206;2022-09-03T03:44:00;97769.13;;;15.93;77.05
11314;BME280;5712;48.858;9.206;2022-09-03T03:46:29;97763.91;;;16.01;76.42
11314;BME280;5712;48.858;9.206;2022-09-03T03:48:56;97765.28;;;16.04;75.92
11314;BME280;5712;48.858;9.206;2022-09-03T03:51:24;97763.84;;;16.10;75.54
11314;BME280;5712;48.858;9.206;2022-09-03T03:53:53;97764.41;;;16.13;75.60
11314;BME280;5712;48.858;9.206;2022-09-03T03:56:20;97770.28;;;16.17;75.54
11314;BME280;5712;48.858;9.206;2022-09-03T03:58:46;97769.97;;;16.20;75.57
11314;BME280;5712;48.858;9.206;2022-09-03T04:01:17;97774.16;;;16.22;75.57
11314;BME280;5712;48.858;9.206;2022-09-03T04:03:44;97777.53;;;16.24;75.68
11314;BME280;5712;48.858;9.206;2022-09-03T04:06:13;97771.34;;;16.24;75.81
11314;BME280;5712;48.858;9.206;2022-09-03T04:08:42;97785.66;;;16.23;75.97
11314;BME280;5712;48.858;9.206;2022-09-03T04:11:11;97777.53;;;16.24;75.84
11314;BME280;5712;48.858;9.206;2022-09-03T04:13:42;97776.53;;;16.25;75.67
11314;BME280;5712;48.858;9.206;2022-09-03T04:16:11;97766.16;;;16.22;76.28
11314;BME280;5712;48.858;9.206;2022-09-03T04:18:39;97769.97;;;16.20;76.95
11314;BME280;5712;48.858;9.206;2022-09-03T04:21:08;97761.59;;;16.15;77.55
11314;BME280;5712;48.858;9.206;2022-09-03T04:23:37;97768.34;;;16.09;78.27
11314;BME280;5712;48.858;9.206;2022-09-03T04:26:05;97773.97;;;16.07;78.79
11314;BME280;5712;48.858;9.206;2022-09-03T04:28:32;97771.16;;;16.08;78.36
11314;BME280;5712;48.858;9.206;2022-09-03T04:31:00;97767.34;;;16.10;77.99
11314;BME280;5712;48.858;9.206;2022-09-03T04:33:27;97764.25;;;16.15;77.91
11314;BME280;5712;48.858;9.206;2022-09-03T04:36:01;97767.75;;;16.15;78.11
11314;BME280;5712;48.858;9.206;2022-09-03T04:38:28;97775.75;;;16.15;78.37
11314;BME280;5712;48.858;9.206;2022-09-03T04:40:56;97778.13;;;16.18;78.39
11314;BME280;5712;48.858;9.206;2022-09-03T04:43:24;97781.47;;;16.20;78.66
11314;BME280;5712;48.858;9.206;2022-09-03T04:45:55;97777.81;;;16.21;78.65
11314;BME280;5712;48.858;9.206;2022-09-03T04:48:21;97778.34;;;16.25;78.87
11314;BME280;5712;48.858;9.206;2022-09-03T04:50:48;97780.88;;;16.26;79.14
11314;BME280;5712;48.858;9.206;2022-09-03T04:53:16;97776.41;;;16.27;79.52
11314;BME280;5712;48.858;9.206;2022-09-03T04:55:43;97773.56;;;16.28;79.81
11314;BME280;5712;48.858;9.206;2022-09-03T04:58:10;97771.88;;;16.27;80.16
11314;BME280;5712;48.858;9.206;2022-09-03T05:00:37;97766.88;;;16.24;80.19
11314;BME280;5712;48.858;9.206;2022-09-03T05:03:04;97776.81;;;16.22;80.03
11314;BME280;5712;48.858;9.206;2022-09-03T05:05:31;97778.81;;;16.20;79.67
11314;BME280;5712;48.858;9.206;2022-09-03T05:07:58;97776.81;;;16.22;79.44
11314;BME280;5712;48.858;9.206;2022-09-03T05:10:27;97780.88;;;16.26;79.17
11314;BME280;5712;48.858;9.206;2022-09-03T05:12:59;97780.28;;;16.32;79.04
11314;BME280;5712;48.858;9.206;2022-09-03T05:15:27;97779.41;;;16.41;78.83
11314;BME280;5712;48.858;9.206;2022-09-03T05:17:57;97778.50;;;16.50;78.69
11314;BME280;5712;48.858;9.206;2022-09-03T05:20:24;97786.59;;;16.58;78.34
11314;BME280;5712;48.858;9.206;2022-09-03T05:22:51;97780.66;;;16.64;78.35
11314;BME280;5712;48.858;9.206;2022-09-03T05:25:18;97775.31;;;16.64;78.48
11314;BME280;5712;48.858;9.206;2022-09-03T05:27:47;97772.31;;;16.50;79.71
11314;BME280;5712;48.858;9.206;2022-09-03T05:30:14;97785.94;;;16.29;81.90
11314;BME280;5712;48.858;9.206;2022-09-03T05:32:41;97787.72;;;16.12;84.37
11314;BME280;5712;48.858;9.206;2022-09-03T05:35:08;97784.16;;;15.94;85.61
11314;BME280;5712;48.858;9.206;2022-09-03T05:37:35;97782.50;;;15.83;86.99
11314;BME280;5712;48.858;9.206;2022-09-03T05:40:03;97788.53;;;15.85;88.40
11314;BME280;5712;48.858;9.206;2022-09-03T05:42:29;97785.44;;;15.90;89.28
11314;BME280;5712;48.858;9.206;2022-09-03T05:45:05;97782.84;;;15.98;88.78
11314;BME280;5712;48.858;9.206;2022-09-03T05:47:36;97783.25;;;16.02;89.00
11314;BME280;5712;48.858;9.206;2022-09-03T05:50:04;97791.94;;;16.04;89.31
11314;BME280;5712;48.858;9.206;2022-09-03T05:52:31;97795.59;;;16.03;89.71
11314;BME280;5712;48.858;9.206;2022-09-03T05:54:58;97793.31;;;16.08;90.06
11314;BME280;5712;48.858;9.206;2022-09-03T05:57:25;97789.63;;;16.19;88.71
11314;BME280;5712;48.858;9.206;2022-09-03T05:59:52;97786.47;;;16.33;87.98
11314;BME280;5712;48.858;9.206;2022-09-03T06:02:20;97790.25;;;16.40;88.04
11314;BME280;5712;48.858;9.206;2022-09-03T06:04:47;97793.31;;;16.45;87.34
11314;BME280;5712;48.858;9.206;2022-09-03T06:07:15;97798.56;;;16.54;87.27
11314;BME280;5712;48.858;9.206;2022-09-03T06:09:42;97797.66;;;16.63;87.10
11314;BME280;5712;48.858;9.206;2022-09-03T06:12:08;97801.16;;;16.81;86.43
11314;BME280;5712;48.858;9.206;2022-09-03T06:14:35;97798.66;;;16.97;85.33
11314;BME280;5712;48.858;9.206;2022-09-03T06:17:02;97797.44;;;17.09;83.78
11314;BME280;5712;48.858;9.206;2022-09-03T06:19:30;97797.00;;;17.22;83.05
11314;BME280;5712;48.858;9.206;2022-09-03T06:21:57;97801.97;;;17.34;82.09
11314;BME280;5712;48.858;9.206;2022-09-03T06:24:24;97797.38;;;17.44;80.56
11314;BME280;5712;48.858;9.206;2022-09-03T06:26:51;97807.13;;;17.53;79.38
11314;BME280;5712;48.858;9.206;2022-09-03T06:29:18;97803.69;;;17.61;79.28
11314;BME280;5712;48.858;9.206;2022-09-03T06:31:45;97798.53;;;17.67;78.76
11314;BME280;5712;48.858;9.206;2022-09-03T06:34:13;97802.09;;;17.76;79.30
11314;BME280;5712;48.858;9.206;2022-09-03T06:36:41;97804.00;;;17.83;79.36
11314;BME280;5712;48.858;9.206;2022-09-03T06:39:08;97808.38;;;17.92;79.40
11314;BME280;5712;48.858;9.206;2022-09-03T06:41:35;97809.25;;;18.01;78.87
11314;BME280;5712;48.858;9.206;2022-09-03T06:44:03;97806.59;;;18.09;77.59
11314;BME280;5712;48.858;9.206;2022-09-03T06:46:31;97796.25;;;18.14;76.38
11314;BME280;5712;48.858;9.206;2022-09-03T06:48:59;97814.53;;;18.18;76.47
11314;BME280;5712;48.858;9.206;2022-09-03T06:51:27;97807.69;;;18.24;76.03
11314;BME280;5712;48.858;9.206;2022-09-03T06:54:00;97806.19;;;18.29;76.06
11314;BME280;5712;48.858;9.206;2022-09-03T06:56:27;97807.25;;;18.36;75.76
11314;BME280;5712;48.858;9.206;2022-09-03T06:58:56;97805.63;;;18.43;75.46
11314;BME280;5712;48.858;9.206;2022-09-03T07:01:25;97806.66;;;18.50;74.63
11314;BME280;5712;48.858;9.206;2022-09-03T07:03:53;97800.66;;;18.64;73.71
11314;BME280;5712;48.858;9.206;2022-09-03T07:06:22;97806.72;;;18.74;73.09
11314;BME280;5712;48.858;9.206;2022-09-03T07:08:49;97816.41;;;18.83;72.26
11314;BME280;5712;48.858;9.206;2022-09-03T07:11:19;97819.63;;;18.95;72.28
11314;BME280;5712;48.858;9.206;2022-09-03T07:13:48;97807.59;;;19.07;72.00
11314;BME280;5712;48.858;9.206;2022-09-03T07:16:18;97805.56;;;19.17;71.74
11314;BME280;5712;48.858;9.206;2022-09-03T07:18:45;97806.13;;;19.28;71.31
11314;BME280;5712;48.858;9.206;2022-09-03T07:21:14;97804.09;;;19.38;70.99
11314;BME280;5712;48.858;9.206;2022-09-03T07:23:41;97816.66;;;19.46;70.42
11314;BME280;5712;48.858;9.206;2022-09-03T07:26:11;97821.50;;;19.58;70.12
11314;BME280;5712;48.858;9.206;2022-09-03T07:28:40;97816.28;;;19.73;69.17
11314;BME280;5712;48.858;9.206;2022-09-03T07:31:09;97825.16;;;19.89;69.27
11314;BME280;5712;48.858;9.206;2022-09-03T07:33:37;97823.09;;;19.99;68.68
11314;BME280;5712;48.858;9.206;2022-09-03T07:36:05;97818.22;;;20.03;68.29
11314;BME280;5712;48.858;9.206;2022-09-03T07:38:32;97827.13;;;20.11;67.77
11314;BME280;5712;48.858;9.206;2022-09-03T07:41:00;97819.41;;;20.16;67.02
11314;BME280;5712;48.858;9.206;2022-09-03T07:43:27;97816.19;;;20.21;66.83
11314;BME280;5712;48.858;9.206;2022-09-03T07:45:57;97815.66;;;20.25;66.94
11314;BME280;5712;48.858;9.206;2022-09-03T07:48:25;97814.97;;;20.31;66.99
11314;BME280;5712;48.858;9.206;2022-09-03T07:50:57;97813.28;;;20.38;67.24
11314;BME280;5712;48.858;9.206;2022-09-03T07:53:25;97810.19;;;20.49;66.58
11314;BME280;5712;48.858;9.206;2022-09-03T07:55:52;97820.91;;;20.57;66.17
11314;BME280;5712;48.858;9.206;2022-09-03T07:58:21;97827.91;;;20.66;66.12
11314;BME280;5712;48.858;9.206;2022-09-03T08:00:48;97824.81;;;20.77;65.36
11314;BME280;5712;48.858;9.206;2022-09-03T08:03:16;97837.53;;;20.91;65.26
11314;BME280;5712;48.858;9.206;2022-09-03T08:05:43;97835.75;;;21.06;65.19
11314;BME280;5712;48.858;9.206;2022-09-03T08:08:10;97834.34;;;21.18;64.32
11314;BME280;5712;48.858;9.206;2022-09-03T08:10:39;97829.25;;;21.23;63.34
11314;BME280;5712;48.858;9.206;2022-09-03T08:13:06;97830.84;;;21.32;62.92
11314;BME280;5712;48.858;9.206;2022-09-03T08:15:33;97833.59;;;21.47;62.82
11314;BME280;5712;48.858;9.206;2022-09-03T08:18:01;97843.47;;;21.54;61.56
11314;BME280;5712;48.858;9.206;2022-09-03T08:20:29;97836.69;;;21.58;61.78
11314;BME280;5712;48.858;9.206;2022-09-03T08:23:00;97845.41;;;21.60;61.90
11314;BME280;5712;48.858;9.206;2022-09-03T08:25:27;97845.13;;;21.55;62.38
11314;BME280;5712;48.858;9.206;2022-09-03T08:27:57;97838.34;;;21.59;62.90
11314;BME280;5712;48.858;9.206;2022-09-03T08:30:24;97829.72;;;21.86;62.64
11314;BME280;5712;48.858;9.206;2022-09-03T08:32:52;97842.09;;;22.24;60.28
11314;BME280;5712;48.858;9.206;2022-09-03T08:35:18;97835.88;;;22.67;58.12
11314;BME280;5712;48.858;9.206;2022-09-03T08:37:47;97840.19;;;22.97;56.64
11314;BME280;5712;48.858;9.206;2022-09-03T08:40:16;97833.75;;;22.98;56.73
11314;BME280;5712;48.858;9.206;2022-09-03T08:42:55;97842.25;;;22.95;57.13
11314;BME280;5712;48.858;9.206;2022-09-03T08:45:25;97847.25;;;22.84;57.25
11314;BME280;5712;48.858;9.206;2022-09-03T08:48:01;97856.69;;;22.73;58.19
11314;BME280;5712;48.858;9.206;2022-09-03T08:50:33;97858.00;;;22.48;59.23
11314;BME280;5712;48.858;9.206;2022-09-03T08:53:10;97853.50;;;22.26;60.29
11314;BME280;5712;48.858;9.206;2022-09-03T08:55:42;97863.47;;;22.40;60.66
11314;BME280;5712;48.858;9.206;2022-09-03T08:58:14;97865.16;;;22.56;59.97
11314;BME280;5712;48.858;9.206;2022-09-03T09:00:48;97872.66;;;22.31;62.47
11314;BME280;5712;48.858;9.206;2022-09-03T09:03:46;97874.34;;;21.58;66.95
11314;BME280;5712;48.858;9.206;2022-09-03T09:06:20;97885.19;;;21.20;67.49
11314;BME280;5712;48.858;9.206;2022-09-03T09:09:12;97878.28;;;21.25;66.53
11314;BME280;5712;48.858;9.206;2022-09-03T09:11:52;97877.09;;;21.50;65.51
11314;BME280;5712;48.858;9.206;2022-09-03T09:14:25;97879.09;;;21.93;63.82
11314;BME280;5712;48.858;9.206;2022-09-03T09:17:01;97873.84;;;22.29;62.25
11314;BME280;5712;48.858;9.206;2022-09-03T09:19:40;97877.88;;;22.47;61.39
11314;BME280;5712;48.858;9.206;2022-09-03T09:22:10;97886.72;;;22.56;61.20
11314;BME280;5712;48.858;9.206;2022-09-03T09:24:42;97879.66;;;22.69;59.71
11314;BME280;5712;48.858;9.206;2022-09-03T09:27:13;97878.88;;;22.75;59.99
11314;BME280;5712;48.858;9.206;2022-09-03T09:29:44;97883.03;;;22.92;59.58
11314;BME280;5712;48.858;9.206;2022-09-03T09:32:13;97872.03;;;23.08;58.80
11314;BME280;5712;48.858;9.206;2022-09-03T09:34:41;97872.75;;;23.31;58.07
11314;BME280;5712;48.858;9.206;2022-09-03T09:37:10;97879.03;;;23.38;56.45
11314;BME280;5712;48.858;9.206;2022-09-03T09:39:38;97878.06;;;23.25;56.15
11314;BME280;5712;48.858;9.206;2022-09-03T09:42:09;97871.25;;;23.29;56.54
11314;BME280;5712;48.858;9.206;2022-09-03T09:44:38;97875.22;;;23.33;56.71
11314;BME280;5712;48.858;9.206;2022-09-03T09:47:09;97877.25;;;23.24;57.04
11314;BME280;5712;48.858;9.206;2022-09-03T09:49:37;97871.56;;;23.19;56.17
11314;BME280;5712;48.858;9.206;2022-09-03T09:52:10;97864.44;;;22.97;57.47
11314;BME280;5712;48.858;9.206;2022-09-03T09:54:38;97866.09;;;22.98;57.74
11314;BME280;5712;48.858;9.206;2022-09-03T09:57:13;97863.97;;;22.94;57.07
11314;BME280;5712;48.858;9.206;2022-09-03T09:59:43;97861.88;;;22.89;58.44
11314;BME280;5712;48.858;9.206;2022-09-03T10:02:12;97867.63;;;22.72;58.67
11314;BME280;5712;48.858;9.206;2022-09-03T10:04:40;97863.75;;;22.60;59.44
11314;BME280;5712;48.858;9.206;2022-09-03T10:07:23;97864.75;;;22.73;60.14
11314;BME280;5712;48.858;9.206;2022-09-03T10:10:05;97858.03;;;22.84;59.23
11314;BME280;5712;48.858;9.206;2022-09-03T10:12:36;97864.59;;;22.75;58.23
11314;BME280;5712;48.858;9.206;2022-09-03T10:15:21;97861.53;;;22.63;58.93
11314;BME280;5712;48.858;9.206;2022-09-03T10:18:02;97862.66;;;22.54;59.85
11314;BME280;5712;48.858;9.206;2022-09-03T10:20:35;97865.25;;;22.33;61.17
11314;BME280;5712;48.858;9.206;2022-09-03T10:23:13;97870.63;;;22.33;62.05
11314;BME280;5712;48.858;9.206;2022-09-03T10:25:50;97859.47;;;22.36;61.14
11314;BME280;5712;48.858;9.206;2022-09-03T10:28:21;97855.38;;;22.40;61.48
11314;BME280;5712;48.858;9.206;2022-09-03T10:31:03;97859.31;;;22.52;59.82
11314;BME280;5712;48.858;9.206;2022-09-03T10:33:39;97860.31;;;22.66;60.03
11314;BME280;5712;48.858;9.206;2022-09-03T10:36:13;97843.66;;;22.77;57.84
11314;BME280;5712;48.858;9.206;2022-09-03T10:38:45;97851.75;;;22.77;59.18
11314;BME280;5712;48.858;9.206;2022-09-03T10:41:26;97848.91;;;22.99;57.33
11314;BME280;5712;48.858;9.206;2022-09-03T10:44:12;97848.53;;;23.02;58.79
11314;BME280;5712;48.858;9.206;2022-09-03T10:46:54;97853.44;;;23.13;58.23
11314;BME280;5712;48.858;9.206;2022-09-03T10:49:34;97851.53;;;23.28;56.93
11314;BME280;5712;48.858;9.206;2022-09-03T10:52:08;97848.22;;;23.26;56.31
11314;BME280;5712;48.858;9.206;2022-09-03T10:54:58;97846.28;;;23.20;56.80
11314;BME280;5712;48.858;9.206;2022-09-03T10:57:34;97852.75;;;23.26;57.58
11314;BME280;5712;48.858;9.206;2022-09-03T11:00:08;97853.97;;;23.23;58.58
11314;BME280;5712;48.858;9.206;2022-09-03T11:05:55;97834.31;;;23.29;57.47
11314;BME280;5712;48.858;9.206;2022-09-03T11:08:27;97833.59;;;23.21;58.40
11314;BME280;5712;48.858;9.206;2022-09-03T11:11:03;97834.22;;;23.37;58.02
11314;BME280;5712;48.858;9.206;2022-09-03T11:13:37;97834.16;;;23.52;57.23
11314;BME280;5712;48.858;9.206;2022-09-03T11:16:11;97829.44;;;23.60;58.06
11314;BME280;5712;48.858;9.206;2022-09-03T11:18:43;97833.72;;;23.76;56.98
11314;BME280;5712;48.858;9.206;2022-09-03T11:21:14;97827.16;;;23.85;56.13
11314;BME280;5712;48.858;9.206;2022-09-03T11:23:44;97818.50;;;23.89;55.65
11314;BME280;5712;48.858;9.206;2022-09-03T11:26:14;97825.03;;;23.80;55.73
11314;BME280;5712;48.858;9.206;2022-09-03T11:28:44;97816.69;;;23.75;55.71
11314;BME280;5712;48.858;9.206;2022-09-03T11:31:25;97813.47;;;23.86;56.98
11314;BME280;5712;48.858;9.206;2022-09-03T11:34:00;97810.28;;;24.04;56.56
11314;BME280;5712;48.858;9.206;2022-09-03T11:36:32;97819.94;;;24.19;57.32
11314;BME280;5712;48.858;9.206;2022-09-03T11:39:00;97809.25;;;24.39;57.14
11314;BME280;5712;48.858;9.206;2022-09-03T11:41:31;97810.97;;;24.53;56.67
11314;BME280;5712;48.858;9.206;2022-09-03T11:44:10;97819.00;;;24.67;55.29
11314;BME280;5712;48.858;9.206;2022-09-03T11:46:40;97811.34;;;24.77;54.45
11314;BME280;5712;48.858;9.206;2022-09-03T11:49:27;97805.97;;;24.90;54.66
11314;BME280;5712;48.858;9.206;2022-09-03T11:51:58;97810.56;;;24.96;54.35
11314;BME280;5712;48.858;9.206;2022-09-03T11:54:26;97802.22;;;24.91;53.94
11314;BME280;5712;48.858;9.206;2022-09-03T11:57:10;97807.84;;;24.83;54.19
11314;BME280;5712;48.858;9.206;2022-09-03T11:59:39;97825.25;;;24.74;53.93
11314;BME280;5712;48.858;9.206;2022-09-03T12:02:19;97822.50;;;24.61;54.74
11314;BME280;5712;48.858;9.206;2022-09-03T12:05:01;97817.19;;;24.47;55.19
11314;BME280;5712;48.858;9.206;2022-09-03T12:07:54;97845.13;;;24.26;55.84
11314;BME280;5712;48.858;9.206;2022-09-03T12:10:38;97853.94;;;24.07;56.85
11314;BME280;5712;48.858;9.206;2022-09-03T12:13:18;97832.66;;;23.91;57.44
11314;BME280;5712;48.858;9.206;2022-09-03T12:16:06;97839.06;;;23.69;58.12
11314;BME280;5712;48.858;9.206;2022-09-03T12:18:40;97840.94;;;23.48;58.61
11314;BME280;5712;48.858;9.206;2022-09-03T12:21:09;97842.41;;;23.29;59.54
11314;BME280;5712;48.858;9.206;2022-09-03T12:23:40;97847.19;;;23.13;60.20
11314;BME280;5712;48.858;9.206;2022-09-03T12:26:11;97845.38;;;22.99;61.40
11314;BME280;5712;48.858;9.206;2022-09-03T12:28:40;97853.59;;;22.91;62.88
11314;BME280;5712;48.858;9.206;2022-09-03T12:31:08;97846.63;;;22.82;63.01
11314;BME280;5712;48.858;9.206;2022-09-03T12:33:46;97850.19;;;22.68;63.41
11314;BME280;5712;48.858;9.206;2022-09-03T12:36:13;97855.66;;;22.60;64.02
11314;BME280;5712;48.858;9.206;2022-09-03T12:38:40;97850.84;;;22.55;63.92
11314;BME280;5712;48.858;9.206;2022-09-03T12:41:19;97853.47;;;22.49;64.11
11314;BME280;5712;48.858;9.206;2022-09-03T12:43:50;97854.00;;;22.44;64.19
11314;BME280;5712;48.858;9.206;2022-09-03T12:46:16;97856.41;;;22.39;64.74
11314;BME280;5712;48.858;9.206;2022-09-03T12:48:59;97857.81;;;22.35;64.72
11314;BME280;5712;48.858;9.206;2022-09-03T12:51:33;97863.56;;;22.18;66.15
11314;BME280;5712;48.858;9.206;2022-09-03T12:54:01;97865.66;;;21.93;70.89
11314;BME280;5712;48.858;9.206;2022-09-03T12:56:30;97867.91;;;21.67;76.31
11314;BME280;5712;48.858;9.206;2022-09-03T12:59:02;97881.75;;;21.34;82.00
11314;BME280;5712;48.858;9.206;2022-09-03T13:01:32;97884.13;;;21.06;87.80
11314;BME280;5712;48.858;9.206;2022-09-03T13:04:05;97889.66;;;20.74;92.24
11314;BME280;5712;48.858;9.206;2022-09-03T13:06:44;97885.72;;;20.46;95.80
11314;BME280;5712;48.858;9.206;2022-09-03T13:09:17;97871.03;;;20.18;98.74
11314;BME280;5712;48.858;9.206;2022-09-03T13:11:44;97875.75;;;20.00;100.00
11314;BME280;5712;48.858;9.206;2022-09-03T13:14:13;97878.28;;;19.78;100.00
11314;BME280;5712;48.858;9.206;2022-09-03T13:17:04;97878.81;;;19.57;100.00
11314;BME280;5712;48.858;9.206;2022-09-03T13:19:43;97891.72;;;19.38;100.00
11314;BME280;5712;48.858;9.206;2022-09-03T13:22:20;97881.97;;;19.29;100.00
11314;BME280;5712;48.858;9.206;2022-09-03T13:25:08;97884.50;;;19.30;100.00
11314;BME280;5712;48.858;9.206;2022-09-03T13:27:42;97879.97;;;19.31;100.00
11314;BME280;5712;48.858;9.206;2022-09-03T13:30:12;97878.97;;;19.40;100.00
11314;BME280;5712;48.858;9.206;2022-09-03T13:32:48;97880.16;;;19.53;100.00
11314;BME280;5712;48.858;9.206;2022-09-03T13:35:25;97882.34;;;19.58;100.00